UGTBUGKO

Guest
Details From UGTB - Tbilisi
To UGKO - Kopitnari
Flight Number -
Tags Generated
Created
Modified
Stats Distance 115 nm / 212 km
Max Altitude 0 ft / 0 m
Waypoints 2
Social Downloads 1
Likes 0
Share VATSIM

Download

Looking for another format? Having issues loading an existing format? Contact us
Advertisement - Login to hide

Notes

Generated

Route

UGTB UGKO

ID Type Via Altitude Latitude Longitude Leg Dist Tot Dist Heading (true) Name
O UGTB APT - 0 ft / 0 m 41.67691˚ 44.94389˚ - 0 nm - -
O UGKO APT - 0 ft / 0 m 42.17482˚ 42.46768˚ 114 nm 114 nm 286° / 284° -

Altitude Profile

Advertisement - Login to hide

UGTB

Details ICAO UGTB (TBS)
Name TBILISI
Region Georgia
Timezone Asia/Tbilisi (UTC+4.0)
Stats Elevation 1,624 ft / 495 m (AMSL)
Location 41.668582° 44.953644°
Runways 2
Magnetic Variation 6.647° E

METAR

UGTB 152000Z VRB01KT 8000 NSC 00/M02 Q1024 R31L/CLRD70 NOSIG

Decode

TAF

Not found

Departure Runways

ID Width Length Bearing (true) Bearing (mag) Surface Threshold Offset Overrun Length
13L 196 ft / 60 m 8,208 ft / 2,502 m 133.64° 126.99° Asphalt 0 ft / 0 m 0 ft / 0 m
13R 147 ft / 45 m 9,839 ft / 2,999 m 136.65° 130.00° Concrete 0 ft / 0 m 155 ft / 47 m
31L 147 ft / 45 m 9,839 ft / 2,999 m 316.67° 310.02° Concrete 0 ft / 0 m 150 ft / 46 m
31R 196 ft / 60 m 8,208 ft / 2,502 m 313.65° 307.00° Asphalt 0 ft / 0 m 0 ft / 0 m

UGKO

Details ICAO UGKO (KUT)
Name KOPITNARI
Region Georgia
Timezone Asia/Tbilisi (UTC+4.0)
Stats Elevation 223 ft / 68 m (AMSL)
Location 42.176653° 42.482583°
Runways 1
Magnetic Variation 6.736° E

METAR

UGKO 152000Z 09006KT CAVOK 05/01 Q1020 R07/09//70 NOSIG

Decode

TAF

Not found

Destination Runways

ID Width Length Bearing (true) Bearing (mag) Surface Threshold Offset Overrun Length
08 144 ft / 44 m 8,171 ft / 2,490 m 80.55° 73.81° Concrete 0 ft / 0 m 60 ft / 18 m
26 144 ft / 44 m 8,171 ft / 2,490 m 260.57° 253.83° Concrete 0 ft / 0 m 60 ft / 18 m

Popular Alternatives